Heusden, Belgium
Current Conditions -  °F | °C
As of 4:25 PM on Saturday 25 Oct 2014 (Local Time) from EBDT Reporting Station
Overcast Overcast  
Wind Chill: 57°   Ceiling: 2400
Heat Index: 57°   Visibility: 6mi
Dew Point: 54°   Wind: 5mph
Humidity: 88%   Direction: 240°WSW
Pressure: 30.12"   Gusts: NA
Location:  51.04°N, 5.28°E
Report Text: EBDT 251425Z AUTO 24004KT 9999 FEW013/// BKN024/// OVC029/// 14/12 Q1020 WHT
Loading
Personal Weather Stations






























Interactive Weather Map
Tropical Storm Tracking
New forecast layout! Learn more

10-Day Weather Forecast

Advertisements
Track Severe Weather on mobile